Time;durP1;ratioP1;P1;durP2;ratioP2;P2;SDS_P1;SDS_P2;PMS_P1;PMS_P2;Temp;Humidity;BMP_temperature;BMP_pressure;BME280_temperature;BME280_humidity;BME280_pressure;Samples;Min_cycle;Max_cycle;Signal;HPM_P1;HPM_P2
2023/10/11 00:00:34;;;;;;;8.80;4.63;;;;;;;11.06;100.00;96810.03;4988385;28;105602;-80
2023/10/11 00:03:06;;;;;;;5.30;4.53;;;;;;;11.03;100.00;96810.50;4989062;28;101897;-80
2023/10/11 00:05:40;;;;;;;6.90;4.47;;;;;;;11.04;100.00;96804.13;4988973;28;105219;-81
2023/10/11 00:08:09;;;;;;;5.27;4.37;;;;;;;11.03;100.00;96813.16;4988334;28;105460;-81
2023/10/11 00:10:42;;;;;;;6.53;4.33;;;;;;;11.00;100.00;96814.47;4989005;28;101889;-79
2023/10/11 00:13:15;;;;;;;7.60;5.00;;;;;;;11.00;100.00;96803.00;4993314;28;102612;-79
2023/10/11 00:15:42;;;;;;;7.30;4.70;;;;;;;11.05;100.00;96809.22;4988544;28;101989;-77
2023/10/11 00:18:11;;;;;;;7.60;4.50;;;;;;;11.10;100.00;96803.16;4988721;28;104880;-79
2023/10/11 00:21:02;;;;;;;8.17;4.67;;;;;;;11.08;100.00;96803.44;4987860;28;105860;-78
2023/10/11 00:23:31;;;;;;;9.87;4.80;;;;;;;10.95;100.00;96806.41;4988861;28;102055;-78
2023/10/11 00:26:00;;;;;;;6.73;4.53;;;;;;;10.92;100.00;96801.56;4988894;28;104287;-77
2023/10/11 00:28:27;;;;;;;10.20;4.90;;;;;;;10.79;100.00;96803.75;4988076;28;105200;-77
2023/10/11 00:30:56;;;;;;;9.30;5.10;;;;;;;10.76;100.00;96798.91;4988658;28;101973;-76
2023/10/11 00:33:25;;;;;;;7.00;4.23;;;;;;;10.87;100.00;96803.34;4989950;28;102504;-77
2023/10/11 00:35:54;;;;;;;8.50;4.90;;;;;;;10.72;100.00;96808.41;4991475;28;104958;-77
2023/10/11 00:38:27;;;;;;;7.47;4.47;;;;;;;10.74;100.00;96808.97;4988710;28;105221;-77
2023/10/11 00:41:07;;;;;;;6.73;4.90;;;;;;;10.82;100.00;96805.91;4988061;28;104267;-78
2023/10/11 00:43:38;;;;;;;5.97;4.70;;;;;;;10.85;100.00;96803.56;4988598;28;102511;-78
2023/10/11 00:46:14;;;;;;;7.80;4.53;;;;;;;10.84;100.00;96795.84;4989738;28;102540;-79
2023/10/11 00:48:51;;;;;;;5.60;4.53;;;;;;;10.80;100.00;96798.16;4990797;28;103121;-77
2023/10/11 00:51:26;;;;;;;6.93;4.80;;;;;;;10.75;100.00;96794.63;4992009;28;101912;-77
2023/10/11 00:53:57;;;;;;;6.83;4.50;;;;;;;10.79;100.00;96790.44;4993491;28;102599;-77
2023/10/11 00:56:31;;;;;;;7.20;4.20;;;;;;;10.76;100.00;96788.25;4991209;28;105253;-77
2023/10/11 00:59:03;;;;;;;7.10;5.03;;;;;;;10.60;100.00;96794.38;4996611;28;101755;-77
2023/10/11 01:01:33;;;;;;;9.50;5.00;;;;;;;10.54;100.00;96785.50;4991208;28;105612;-77
2023/10/11 01:04:02;;;;;;;6.63;4.13;;;;;;;10.62;100.00;96785.09;4991619;28;102155;-77
2023/10/11 01:06:29;;;;;;;10.07;4.67;;;;;;;10.53;100.00;96791.06;4993002;28;102525;-77
2023/10/11 01:08:57;;;;;;;7.87;4.60;;;;;;;10.51;100.00;96791.28;4991044;28;105454;-76
2023/10/11 01:11:26;;;;;;;7.83;5.10;;;;;;;10.61;100.00;96786.16;4991908;28;101955;-78
2023/10/11 01:13:53;;;;;;;9.43;5.33;;;;;;;10.59;100.00;96790.09;4991662;28;104269;-78
2023/10/11 01:16:25;;;;;;;8.07;4.50;;;;;;;10.49;100.00;96785.41;4990930;28;105079;-78
2023/10/11 01:18:52;;;;;;;9.47;4.97;;;;;;;10.47;100.00;96784.06;4991501;28;101943;-77
2023/10/11 01:21:21;;;;;;;5.83;4.60;;;;;;;10.48;100.00;96778.47;4993986;28;105593;-77
2023/10/11 01:23:49;;;;;;;7.13;4.50;;;;;;;10.50;100.00;96775.56;4991537;28;102221;-77
2023/10/11 01:26:17;;;;;;;7.53;4.90;;;;;;;10.43;100.00;96766.94;4991455;28;105504;-77
2023/10/11 01:28:45;;;;;;;7.60;4.80;;;;;;;10.44;100.00;96768.56;4990473;28;105854;-77
2023/10/11 01:31:16;;;;;;;6.93;4.90;;;;;;;10.39;100.00;96776.44;4991438;28;102244;-77
2023/10/11 01:33:45;;;;;;;9.30;4.90;;;;;;;10.28;100.00;96774.66;4991479;28;105558;-79
2023/10/11 01:36:21;;;;;;;8.27;4.70;;;;;;;10.28;100.00;96770.16;4992007;28;102765;-81
2023/10/11 01:39:21;;;;;;;10.03;4.87;;;;;;;10.35;100.00;96773.47;4991318;28;102057;-80
2023/10/11 01:41:59;;;;;;;9.27;5.47;;;;;;;10.45;100.00;96773.66;4991796;28;104811;-78
2023/10/11 01:44:27;;;;;;;9.27;4.90;;;;;;;10.39;100.00;96768.47;4992731;28;101826;-78
2023/10/11 01:46:55;;;;;;;7.20;4.63;;;;;;;10.27;100.00;96768.56;4992610;28;101739;-78
2023/10/11 01:49:23;;;;;;;7.30;4.50;;;;;;;10.19;100.00;96768.91;4990460;28;105129;-78
2023/10/11 01:51:52;;;;;;;5.70;4.30;;;;;;;10.21;100.00;96766.03;4991233;28;101961;-78
2023/10/11 01:54:22;;;;;;;8.77;4.40;;;;;;;10.20;100.00;96765.22;4990982;28;104861;-78
2023/10/11 01:56:52;;;;;;;7.63;5.03;;;;;;;10.27;100.00;96767.72;4990258;28;105555;-78
2023/10/11 01:59:21;;;;;;;8.87;4.93;;;;;;;10.27;100.00;96765.91;4990500;28;101992;-78
2023/10/11 02:01:58;;;;;;;10.67;5.10;;;;;;;10.25;100.00;96761.88;4990787;28;105283;-78
2023/10/11 02:04:25;;;;;;;8.60;5.00;;;;;;;10.22;100.00;96759.66;4993767;28;105736;-78
2023/10/11 02:06:52;;;;;;;7.13;5.10;;;;;;;10.12;100.00;96757.63;4990913;28;104422;-76
2023/10/11 02:09:24;;;;;;;6.90;4.67;;;;;;;10.08;100.00;96755.72;4991553;28;103128;-77
2023/10/11 02:11:53;;;;;;;7.63;4.50;;;;;;;10.13;100.00;96758.44;4991984;28;101788;-78
2023/10/11 02:14:22;;;;;;;5.83;4.70;;;;;;;9.99;100.00;96762.41;4990112;28;105011;-76
2023/10/11 02:16:49;;;;;;;7.63;4.80;;;;;;;9.92;100.00;96756.44;4990312;28;105076;-76
2023/10/11 02:19:16;;;;;;;7.13;4.47;;;;;;;9.92;100.00;96762.53;4990733;28;101889;-76
2023/10/11 02:21:44;;;;;;;8.07;5.37;;;;;;;10.04;100.00;96759.88;4990449;28;105110;-76
2023/10/11 02:24:14;;;;;;;7.83;5.13;;;;;;;9.95;100.00;96762.06;4989925;28;105097;-76
2023/10/11 02:26:49;;;;;;;6.73;4.93;;;;;;;10.08;100.00;96766.34;4993936;28;101742;-76
2023/10/11 02:29:21;;;;;;;8.27;4.90;;;;;;;10.09;100.00;96759.97;4990007;28;105077;-76
2023/10/11 02:31:51;;;;;;;6.60;4.80;;;;;;;10.00;100.00;96761.34;4990468;28;101942;-76
2023/10/11 02:34:19;;;;;;;7.07;4.33;;;;;;;10.01;100.00;96762.97;4990447;28;105407;-77
2023/10/11 02:36:56;;;;;;;5.30;4.40;;;;;;;10.02;100.00;96761.91;4989802;28;105184;-77
2023/10/11 02:39:32;;;;;;;8.37;5.13;;;;;;;9.90;100.00;96766.47;4990331;28;101831;-77
2023/10/11 02:41:59;;;;;;;8.20;4.43;;;;;;;9.82;100.00;96762.34;4990255;28;105211;-77
2023/10/11 02:44:26;;;;;;;5.97;4.87;;;;;;;9.89;100.00;96756.91;4991104;28;101750;-77
2023/10/11 02:46:58;;;;;;;8.27;4.90;;;;;;;9.92;100.00;96757.22;4990332;28;101962;-77
2023/10/11 02:49:31;;;;;;;8.17;4.93;;;;;;;9.90;100.00;96755.84;4992941;28;104352;-77
2023/10/11 02:52:05;;;;;;;8.77;4.57;;;;;;;9.96;100.00;96762.88;4991668;28;101916;-77
2023/10/11 02:54:38;;;;;;;8.47;4.60;;;;;;;9.99;100.00;96757.91;4989987;28;105895;-77
2023/10/11 02:57:06;;;;;;;8.27;4.60;;;;;;;9.93;100.00;96755.38;4989461;28;105441;-77
2023/10/11 02:59:34;;;;;;;8.47;5.07;;;;;;;9.91;100.00;96744.16;4989666;28;101994;-77
2023/10/11 03:02:04;;;;;;;9.73;4.93;;;;;;;9.98;100.00;96753.63;4990013;28;105537;-78
2023/10/11 03:04:36;;;;;;;7.23;4.20;;;;;;;9.93;100.00;96752.72;4989438;28;103926;-78
2023/10/11 03:07:03;;;;;;;6.37;4.30;;;;;;;9.80;100.00;96748.50;4989907;28;101855;-78
2023/10/11 03:09:35;;;;;;;7.10;4.40;;;;;;;9.73;100.00;96747.84;4989576;28;105216;-77
2023/10/11 03:12:06;;;;;;;8.57;4.53;;;;;;;9.63;100.00;96752.13;4992806;28;105327;-76
2023/10/11 03:14:40;;;;;;;6.50;4.40;;;;;;;9.60;100.00;96749.94;4989568;28;104251;-76
2023/10/11 03:17:13;;;;;;;7.40;4.57;;;;;;;9.71;100.00;96754.44;4989305;28;105318;-76
2023/10/11 03:19:42;;;;;;;7.83;4.63;;;;;;;9.65;100.00;96752.72;4989468;28;101913;-76
2023/10/11 03:22:09;;;;;;;7.40;4.97;;;;;;;9.76;100.00;96751.88;4989588;28;105340;-76
2023/10/11 03:24:40;;;;;;;7.70;4.77;;;;;;;9.72;100.00;96745.41;4988984;28;105266;-76
2023/10/11 03:27:10;;;;;;;10.80;5.60;;;;;;;9.75;100.00;96740.44;4989734;28;102043;-76
2023/10/11 03:29:39;;;;;;;7.40;5.00;;;;;;;9.73;100.00;96739.88;4989429;28;105115;-83
2023/10/11 03:32:06;;;;;;;8.23;5.17;;;;;;;9.72;100.00;96745.41;4988912;28;105143;-84
2023/10/11 03:34:39;;;;;;;7.37;4.83;;;;;;;9.69;100.00;96745.88;4994395;28;102003;-78
2023/10/11 03:37:10;;;;;;;8.27;5.03;;;;;;;9.67;100.00;96750.63;4988820;28;104596;-77
2023/10/11 03:39:44;;;;;;;9.00;5.57;;;;;;;9.66;100.00;96747.16;4990614;28;101774;-77
2023/10/11 03:42:17;;;;;;;9.27;5.37;;;;;;;9.72;100.00;96751.53;4989455;28;105484;-77
2023/10/11 03:44:46;;;;;;;6.47;5.00;;;;;;;9.75;100.00;96750.25;4990232;28;102949;-85
2023/10/11 03:47:15;;;;;;;9.37;5.77;;;;;;;9.71;100.00;96752.56;4989362;28;102144;-86
2023/10/11 03:49:52;;;;;;;10.57;4.97;;;;;;;9.68;100.00;96737.13;4989159;28;105234;-80
2023/10/11 03:52:22;;;;;;;7.33;5.17;;;;;;;9.60;100.00;96742.00;4988598;28;105025;-78
2023/10/11 03:54:53;;;;;;;7.43;4.87;;;;;;;9.64;100.00;96740.44;4994100;28;101968;-78
2023/10/11 03:57:20;;;;;;;11.30;5.90;;;;;;;9.69;100.00;96738.72;4989546;28;103798;-78
2023/10/11 03:59:51;;;;;;;7.03;4.87;;;;;;;9.65;100.00;96739.44;4973296;28;101911;-78
2023/10/11 04:02:19;;;;;;;8.63;5.60;;;;;;;9.63;100.00;96736.19;4991436;28;102483;-78
2023/10/11 04:04:49;;;;;;;9.27;4.83;;;;;;;9.64;100.00;96745.75;4989310;28;103967;-78
2023/10/11 04:07:22;;;;;;;9.10;5.07;;;;;;;9.59;100.00;96738.50;4991430;28;101666;-79
2023/10/11 04:10:04;;;;;;;7.90;4.93;;;;;;;9.60;100.00;96740.13;4989771;28;105200;-80
2023/10/11 04:12:41;;;;;;;;;;;;;;;;;;;;;
2023/10/11 04:15:19;;;;;;;8.07;5.83;;;;;;;9.53;100.00;96742.13;4990743;28;101846;-81
2023/10/11 04:17:49;;;;;;;8.50;5.87;;;;;;;9.44;100.00;96748.03;4992598;28;105320;-81
2023/10/11 04:20:21;;;;;;;12.93;5.23;;;;;;;9.45;100.00;96741.66;4989709;28;101961;-81
2023/10/11 04:22:51;;;;;;;8.40;5.13;;;;;;;9.46;100.00;96740.63;4989100;28;104850;-79
2023/10/11 04:25:22;;;;;;;8.43;5.60;;;;;;;9.34;100.00;96743.31;4989044;28;104774;-79
2023/10/11 04:27:55;;;;;;;7.07;4.70;;;;;;;9.41;100.00;96740.53;4989631;28;101827;-80
2023/10/11 04:30:26;;;;;;;7.97;5.20;;;;;;;9.46;100.00;96736.13;5007280;28;103682;-82
2023/10/11 04:32:57;;;;;;;6.50;4.87;;;;;;;9.41;100.00;96732.56;5009036;28;105701;-82
2023/10/11 04:35:36;;;;;;;6.60;4.83;;;;;;;9.33;100.00;96730.28;5009497;28;101985;-81
2023/10/11 04:38:06;;;;;;;11.43;5.40;;;;;;;9.25;100.00;96736.75;5009522;28;105108;-82
2023/10/11 04:40:40;;;;;;;8.90;5.43;;;;;;;9.36;100.00;96733.28;5013544;28;103067;-80
2023/10/11 04:43:20;;;;;;;9.13;5.20;;;;;;;9.43;100.00;96736.59;5009509;28;104540;-80
2023/10/11 04:45:50;;;;;;;7.27;5.40;;;;;;;9.37;100.00;96739.41;5008698;28;105289;-81
2023/10/11 04:48:19;;;;;;;10.53;5.30;;;;;;;9.37;100.00;96742.06;5008660;28;101920;-80
2023/10/11 04:50:50;;;;;;;7.93;5.03;;;;;;;9.36;100.00;96737.75;5008443;28;105296;-80
2023/10/11 04:53:18;;;;;;;10.27;5.63;;;;;;;9.39;100.00;96732.00;5007755;28;105541;-81
2023/10/11 04:55:58;;;;;;;10.33;6.30;;;;;;;9.47;100.00;96743.06;5009649;28;102147;-81
2023/10/11 04:58:42;;;;;;;12.90;6.33;;;;;;;9.49;100.00;96738.31;5009984;28;102539;-79
2023/10/11 05:01:11;;;;;;;9.27;5.33;;;;;;;9.48;100.00;96739.34;5007692;28;105536;-79
2023/10/11 05:03:39;;;;;;;9.33;5.70;;;;;;;9.51;100.00;96743.38;5011727;28;102289;-79
2023/10/11 05:06:15;;;;;;;6.53;4.70;;;;;;;9.48;100.00;96741.22;5008447;28;105038;-80
2023/10/11 05:08:54;;;;;;;11.97;5.63;;;;;;;9.52;100.00;96745.81;5009059;28;101808;-80
2023/10/11 05:11:36;;;;;;;11.63;5.90;;;;;;;9.54;100.00;96746.38;5008725;28;104852;-79
2023/10/11 05:14:28;;;;;;;7.60;5.40;;;;;;;9.48;100.00;96749.19;5008382;28;104935;-79
2023/10/11 05:16:59;;;;;;;7.83;5.00;;;;;;;9.41;100.00;96754.59;5008943;28;101891;-79
2023/10/11 05:19:27;;;;;;;7.17;5.10;;;;;;;9.39;100.00;96747.91;5008725;28;105478;-79
2023/10/11 05:21:55;;;;;;;7.90;5.30;;;;;;;9.31;100.00;96749.09;5008309;28;105035;-79
2023/10/11 05:24:43;;;;;;;6.80;5.10;;;;;;;9.30;100.00;96749.31;5008969;28;101684;-79
2023/10/11 05:27:36;;;;;;;8.57;5.00;;;;;;;9.37;100.00;96752.66;5011641;28;105423;-79
2023/10/11 05:30:11;;;;;;;9.03;5.80;;;;;;;9.39;100.00;96755.88;4978137;28;101959;-79
2023/10/11 05:32:41;;;;;;;10.37;5.87;;;;;;;9.35;100.00;96760.03;4989077;28;104167;-79
2023/10/11 05:35:19;;;;;;;10.80;6.63;;;;;;;9.25;100.00;96754.50;4989048;28;104960;-79
2023/10/11 05:51:48;;;;;;;12.63;5.10;;;;;;;9.86;100.00;96787.38;4994241;28;102380;-78
2023/10/11 05:54:16;;;;;;;9.80;5.80;;;;;;;10.51;100.00;96790.47;4992152;28;105578;-78
2023/10/11 05:56:47;;;;;;;9.07;6.20;;;;;;;10.66;100.00;96796.06;4991374;28;104617;-78
2023/10/11 05:59:20;;;;;;;11.13;6.57;;;;;;;10.64;100.00;96792.84;4991784;28;101879;-80
2023/10/11 06:01:47;;;;;;;9.87;6.07;;;;;;;10.89;100.00;96790.59;4991815;28;104709;-78
2023/10/11 06:04:17;;;;;;;11.77;6.40;;;;;;;11.25;100.00;96798.06;4991191;28;105643;-78
2023/10/11 06:06:57;;;;;;;11.50;6.63;;;;;;;11.03;100.00;96791.88;4993255;28;101688;-79
2023/10/11 06:09:43;;;;;;;13.43;6.60;;;;;;;11.50;100.00;96801.88;4993155;28;102742;-79
2023/10/11 06:12:27;;;;;;;12.23;6.50;;;;;;;11.56;100.00;96805.44;4994735;28;103543;-79
2023/10/11 06:15:12;;;;;;;11.83;6.20;;;;;;;11.49;100.00;96797.63;4991060;28;105218;-79
2023/10/11 06:17:54;;;;;;;12.90;6.50;;;;;;;11.95;100.00;96813.16;4990595;28;105472;-79
2023/10/11 06:20:38;;;;;;;12.13;6.53;;;;;;;12.35;100.00;96810.16;4990530;28;102058;-79
2023/10/11 06:23:08;;;;;;;15.03;6.77;;;;;;;12.37;100.00;96816.84;4990218;28;105571;-79
2023/10/11 06:25:57;;;;;;;11.33;6.50;;;;;;;12.66;100.00;96817.41;4989730;28;106002;-79
2023/10/11 06:28:39;;;;;;;18.70;7.03;;;;;;;12.50;100.00;96816.47;4990576;28;102450;-79
2023/10/11 06:31:14;;;;;;;10.43;7.13;;;;;;;12.59;100.00;96808.81;4989849;28;105370;-79
2023/10/11 06:33:52;;;;;;;12.80;7.27;;;;;;;12.97;100.00;96814.78;5004925;28;105276;-79
2023/10/11 06:36:30;;;;;;;11.23;7.77;;;;;;;12.99;100.00;96815.34;4991925;28;102128;-79
2023/10/11 06:39:07;;;;;;;10.10;6.87;;;;;;;13.38;100.00;96818.56;4988223;28;104476;-79
2023/10/11 06:41:57;;;;;;;13.80;8.00;;;;;;;13.70;100.00;96822.78;4990072;28;102273;-79
2023/10/11 06:44:27;;;;;;;9.77;6.30;;;;;;;13.73;100.00;96818.78;4988653;28;105581;-78
2023/10/11 06:46:57;;;;;;;12.30;7.00;;;;;;;14.03;100.00;96816.25;4987544;28;105554;-78
2023/10/11 06:49:40;;;;;;;13.50;6.87;;;;;;;14.26;100.00;96818.50;4991332;28;102033;-78
2023/10/11 06:52:17;;;;;;;10.60;6.40;;;;;;;14.05;100.00;96814.09;4990129;28;105766;-78
2023/10/11 06:54:47;;;;;;;11.47;6.43;;;;;;;14.27;100.00;96815.56;4989574;28;105114;-78
2023/10/11 06:57:22;;;;;;;8.37;6.20;;;;;;;14.43;100.00;96808.38;4991452;28;101814;-78
2023/10/11 06:59:57;;;;;;;11.97;6.27;;;;;;;14.31;100.00;96813.16;4992758;28;105050;-78
2023/10/11 07:02:32;;;;;;;12.57;6.17;;;;;;;14.54;100.00;96816.16;4989826;28;101907;-78
2023/10/11 07:05:05;;;;;;;10.90;6.23;;;;;;;14.45;100.00;96809.72;4990137;28;104923;-78
2023/10/11 07:07:38;;;;;;;9.13;5.80;;;;;;;14.55;100.00;96811.63;4989155;28;105770;-78
2023/10/11 07:10:28;;;;;;;7.67;5.40;;;;;;;14.66;100.00;96805.22;4989897;28;101890;-78
2023/10/11 07:13:12;;;;;;;8.37;4.83;;;;;;;14.69;100.00;96807.34;4989750;28;105606;-78
2023/10/11 07:16:08;;;;;;;7.87;4.70;;;;;;;14.69;100.00;96804.69;4988702;28;103643;-78
2023/10/11 07:18:46;;;;;;;11.13;5.50;;;;;;;14.53;100.00;96805.72;4989857;28;102497;-78
2023/10/11 07:21:19;;;;;;;8.63;5.10;;;;;;;15.16;100.00;96807.94;4990874;28;102556;-78
2023/10/11 07:23:57;;;;;;;10.97;6.43;;;;;;;15.16;100.00;96797.22;4992575;28;105637;-78
2023/10/11 07:29:33;;;;;;;;;;;;;;;;;;;;;
2023/10/11 07:32:09;;;;;;;11.13;5.53;;;;;;;15.72;100.00;96801.44;4989178;28;103592;-78
2023/10/11 07:37:34;;;;;;;8.83;5.57;;;;;;;16.01;100.00;96807.75;4987887;28;102815;-78
2023/10/11 07:40:20;;;;;;;8.50;4.80;;;;;;;16.18;100.00;96803.69;4989258;28;101926;-78
2023/10/11 07:42:57;;;;;;;12.03;4.90;;;;;;;16.40;100.00;96804.13;4990819;28;102605;-78
2023/10/11 07:45:26;;;;;;;7.13;3.67;;;;;;;16.35;100.00;96795.28;4988614;28;106148;-79
2023/10/11 07:47:55;;;;;;;9.23;3.83;;;;;;;16.71;100.00;96791.31;4992609;28;102012;-73
2023/10/11 07:50:23;;;;;;;7.77;3.60;;;;;;;17.18;100.00;96791.53;4988523;28;106035;-73
2023/10/11 07:52:50;;;;;;;8.67;3.83;;;;;;;17.14;100.00;96785.09;4989207;28;102112;-73
2023/10/11 07:55:17;;;;;;;15.50;4.60;;;;;;;16.98;100.00;96787.13;4990583;28;103005;-73
2023/10/11 07:57:46;;;;;;;10.00;4.17;;;;;;;16.99;100.00;96794.09;4987612;28;104210;-73
2023/10/11 08:00:18;;;;;;;8.83;4.53;;;;;;;17.42;100.00;96781.63;4988858;28;101868;-74
2023/10/11 08:02:56;;;;;;;9.60;3.90;;;;;;;17.66;100.00;96780.59;4989202;28;105190;-73
2023/10/11 08:05:25;;;;;;;15.50;4.17;;;;;;;17.63;100.00;96777.66;4988364;28;106066;-73
2023/10/11 08:07:53;;;;;;;10.87;4.07;;;;;;;17.87;100.00;96775.81;4992408;28;101968;-73
2023/10/11 08:10:33;;;;;;;10.17;3.93;;;;;;;18.12;100.00;96779.00;4989471;28;102758;-73
2023/10/11 08:13:01;;;;;;;8.50;4.13;;;;;;;17.92;100.00;96773.84;4989022;28;101743;-73
2023/10/11 08:15:28;;;;;;;8.20;3.97;;;;;;;18.17;100.00;96772.72;4988584;28;105373;-73
2023/10/11 08:17:57;;;;;;;8.87;3.57;;;;;;;18.04;100.00;96773.44;4988303;28;103915;-73
2023/10/11 08:20:28;;;;;;;8.47;3.70;;;;;;;18.26;100.00;96771.00;4990040;28;102025;-73
2023/10/11 08:22:57;;;;;;;7.03;3.70;;;;;;;18.53;100.00;96768.50;4988919;28;104889;-73
2023/10/11 08:25:27;;;;;;;9.77;3.33;;;;;;;18.47;100.00;96770.47;4988200;28;105202;-73
2023/10/11 08:28:10;;;;;;;10.97;4.10;;;;;;;18.38;100.00;96768.72;4988625;28;101838;-73
2023/10/11 08:30:38;;;;;;;8.90;4.17;;;;;;;18.78;100.00;96768.94;4991753;28;104113;-73
2023/10/11 08:33:08;;;;;;;7.40;3.43;;;;;;;18.70;100.00;96764.19;4988730;28;101892;-73
2023/10/11 08:35:35;;;;;;;7.80;3.30;;;;;;;18.73;100.00;96757.41;4988613;28;105214;-73
2023/10/11 08:38:04;;;;;;;9.30;3.50;;;;;;;18.91;100.00;96759.31;4989273;28;102869;-73
2023/10/11 08:40:37;;;;;;;6.73;3.33;;;;;;;19.08;100.00;96751.47;4988608;28;101926;-73
2023/10/11 08:43:04;;;;;;;10.20;3.80;;;;;;;19.32;100.00;96754.88;4988573;28;105205;-73
2023/10/11 08:45:35;;;;;;;6.33;3.33;;;;;;;19.48;100.00;96754.31;4987988;28;105385;-73
2023/10/11 08:48:03;;;;;;;6.57;3.37;;;;;;;19.60;100.00;96749.22;4989787;28;101849;-73
2023/10/11 08:50:34;;;;;;;7.57;3.33;;;;;;;19.88;100.00;96750.84;4988616;28;105348;-73
2023/10/11 08:53:02;;;;;;;8.23;3.37;;;;;;;19.98;100.00;96749.81;4991072;28;104229;-73
2023/10/11 08:55:29;;;;;;;8.80;3.73;;;;;;;20.10;100.00;96750.19;4989783;28;102910;-73
2023/10/11 08:57:56;;;;;;;6.73;3.30;;;;;;;20.34;100.00;96748.84;4988970;28;103101;-73
2023/10/11 09:00:31;;;;;;;5.10;2.90;;;;;;;20.53;100.00;96746.78;4989862;28;101911;-73
2023/10/11 09:02:58;;;;;;;9.30;3.23;;;;;;;20.71;100.00;96739.63;4988379;28;105584;-73
2023/10/11 09:05:43;;;;;;;5.60;3.00;;;;;;;20.85;100.00;96743.06;4987688;28;105286;-73
2023/10/11 09:08:21;;;;;;;7.87;3.03;;;;;;;21.08;100.00;96737.38;4988250;28;101970;-73
2023/10/11 09:10:49;;;;;;;10.63;3.40;;;;;;;21.10;100.00;96734.38;4991473;28;104019;-73
2023/10/11 09:13:26;;;;;;;6.90;2.97;;;;;;;21.02;100.00;96743.22;4990928;28;103824;-73
2023/10/11 09:15:55;;;;;;;11.33;3.57;;;;;;;21.14;100.00;96735.38;4994918;28;101920;-73
2023/10/11 09:18:25;;;;;;;8.23;2.93;;;;;;;21.58;100.00;96748.84;4991006;28;105747;-73
2023/10/11 09:21:08;;;;;;;8.23;3.13;;;;;;;21.24;100.00;96744.03;4992888;28;101812;-73
2023/10/11 09:23:36;;;;;;;9.37;2.97;;;;;;;20.99;100.00;96733.81;4991800;28;103715;-73
2023/10/11 09:26:05;;;;;;;9.23;3.30;;;;;;;21.06;100.00;96736.09;4991994;28;103061;-73
2023/10/11 09:28:33;;;;;;;7.50;3.00;;;;;;;21.20;100.00;96732.22;4992669;28;101875;-73
2023/10/11 09:31:11;;;;;;;10.43;3.00;;;;;;;21.33;100.00;96733.25;4992695;28;102547;-73
2023/10/11 09:33:40;;;;;;;12.07;3.00;;;;;;;21.25;100.00;96732.09;4990869;28;104008;-73
2023/10/11 09:36:12;;;;;;;7.17;2.87;;;;;;;21.58;100.00;96736.09;4991458;28;101952;-73
2023/10/11 09:38:42;;;;;;;9.17;3.30;;;;;;;21.72;100.00;96727.91;4994161;28;105559;-74
2023/10/11 09:41:10;;;;;;;8.57;2.53;;;;;;;22.00;100.00;96730.06;4992248;28;102014;-73
2023/10/11 09:43:42;;;;;;;8.07;3.03;;;;;;;21.89;100.00;96730.66;4991222;28;104957;-73
2023/10/11 09:46:12;;;;;;;7.53;2.70;;;;;;;22.10;100.00;96726.28;4992161;28;102846;-73
2023/10/11 09:48:40;;;;;;;7.83;2.80;;;;;;;22.37;100.00;96726.00;4991146;28;102001;-74
2023/10/11 09:51:24;;;;;;;7.57;3.00;;;;;;;22.52;100.00;96720.97;4991265;28;102755;-74
2023/10/11 09:53:53;;;;;;;7.80;2.77;;;;;;;22.92;100.00;96724.31;4990407;28;105485;-74
2023/10/11 09:56:40;;;;;;;11.50;2.90;;;;;;;22.95;100.00;96720.97;4990976;28;101952;-74
2023/10/11 09:59:23;;;;;;;6.47;3.07;;;;;;;23.03;100.00;96720.94;4992445;28;102544;-74
2023/10/11 10:02:02;;;;;;;7.07;3.33;;;;;;;23.27;100.00;96720.47;4995343;28;103063;-74
2023/10/11 10:04:55;;;;;;;12.50;3.60;;;;;;;23.57;98.19;96716.69;4992441;28;102462;-74
2023/10/11 10:07:26;;;;;;;6.53;2.87;;;;;;;23.82;100.00;96724.75;4991835;28;102739;-74
2023/10/11 10:09:54;;;;;;;7.03;2.73;;;;;;;23.85;94.32;96721.38;4990762;28;101925;-74
2023/10/11 10:12:22;;;;;;;8.70;2.70;;;;;;;23.87;93.08;96721.84;4990856;28;105275;-74
2023/10/11 10:14:53;;;;;;;8.57;2.50;;;;;;;23.95;86.97;96725.69;4989561;28;106992;-74
2023/10/11 10:17:20;;;;;;;8.87;3.17;;;;;;;23.90;94.66;96715.81;4990712;28;101813;-74
2023/10/11 10:19:48;;;;;;;11.53;3.27;;;;;;;24.13;96.68;96717.13;4990505;28;102840;-74
2023/10/11 10:22:17;;;;;;;13.43;3.73;;;;;;;23.40;96.67;96723.00;4994129;28;102741;-74
2023/10/11 10:24:48;;;;;;;7.80;2.77;;;;;;;23.44;86.26;96715.78;4990417;28;105424;-74
2023/10/11 10:27:45;;;;;;;8.97;3.07;;;;;;;23.77;97.62;96714.06;4990182;28;105109;-74
2023/10/11 10:30:16;;;;;;;5.90;2.93;;;;;;;24.12;89.16;96712.00;4987059;28;101945;-74
2023/10/11 10:33:19;;;;;;;9.33;2.80;;;;;;;24.44;84.13;96711.31;4992069;28;102549;-74
2023/10/11 10:35:48;;;;;;;8.30;3.20;;;;;;;24.30;81.05;96714.28;4989768;28;105619;-74
2023/10/11 10:38:16;;;;;;;5.70;3.03;;;;;;;24.04;80.92;96702.00;4990313;28;101901;-74
2023/10/11 10:40:45;;;;;;;12.03;3.30;;;;;;;24.60;81.78;96707.72;4991726;28;102562;-74
2023/10/11 10:43:19;;;;;;;7.60;3.40;;;;;;;24.76;82.14;96699.75;4990999;28;103109;-74
2023/10/11 10:45:48;;;;;;;8.00;3.07;;;;;;;25.08;81.72;96699.00;4994967;28;101736;-74
2023/10/11 10:48:16;;;;;;;5.93;2.63;;;;;;;25.20;74.54;96688.13;4989615;28;105861;-74
2023/10/11 10:50:48;;;;;;;7.73;2.53;;;;;;;25.15;72.66;96680.19;4990311;28;102258;-74
2023/10/11 10:53:15;;;;;;;10.87;2.90;;;;;;;25.39;75.81;96685.72;4991072;28;104422;-74
2023/10/11 10:55:42;;;;;;;8.30;2.80;;;;;;;25.22;69.67;96685.88;4989516;28;105741;-74
2023/10/11 10:58:16;;;;;;;4.77;2.53;;;;;;;25.23;72.96;96679.31;4990030;28;101861;-74
2023/10/11 11:00:44;;;;;;;6.57;2.83;;;;;;;25.15;79.99;96674.72;4991452;28;101773;-74
2023/10/11 11:03:24;;;;;;;10.20;3.10;;;;;;;25.39;71.19;96669.41;4989298;28;104927;-74
2023/10/11 11:05:58;;;;;;;8.00;2.80;;;;;;;25.37;62.91;96667.00;4990088;28;101716;-74
2023/10/11 11:08:27;;;;;;;8.07;3.10;;;;;;;25.49;65.07;96663.50;4994049;28;102619;-74
2023/10/11 11:11:19;;;;;;;8.43;3.30;;;;;;;25.74;70.64;96657.75;4989954;28;101872;-74
2023/10/11 11:13:49;;;;;;;8.57;3.10;;;;;;;25.54;68.74;96652.38;4989953;28;105150;-74
2023/10/11 11:16:22;;;;;;;6.10;2.83;;;;;;;24.69;79.88;96661.44;4990235;28;102683;-74
2023/10/11 11:18:49;;;;;;;6.67;2.67;;;;;;;24.98;61.52;96658.59;4989793;28;101954;-74
2023/10/11 11:21:17;;;;;;;7.83;2.80;;;;;;;25.04;57.61;96657.25;4989482;28;104022;-74
2023/10/11 11:23:46;;;;;;;9.17;3.23;;;;;;;24.96;64.69;96649.97;4990294;28;102779;-74
2023/10/11 11:26:17;;;;;;;11.00;3.03;;;;;;;25.19;72.10;96651.97;4989721;28;101869;-74
2023/10/11 11:28:44;;;;;;;8.97;3.00;;;;;;;25.45;58.42;96641.59;4989467;28;105432;-74
2023/10/11 11:31:13;;;;;;;11.30;2.63;;;;;;;25.52;61.13;96636.41;4992312;28;105435;-74
2023/10/11 11:34:05;;;;;;;7.60;2.80;;;;;;;26.16;61.78;96636.50;4988335;28;105297;-74
2023/10/11 11:36:36;;;;;;;7.73;2.70;;;;;;;25.71;58.53;96633.88;4988879;28;105717;-74
2023/10/11 11:39:17;;;;;;;7.07;3.17;;;;;;;26.10;55.63;96635.16;4989529;28;101875;-74
2023/10/11 11:41:48;;;;;;;7.37;2.93;;;;;;;26.47;48.94;96629.28;4989524;28;105853;-74
2023/10/11 11:44:20;;;;;;;8.10;3.17;;;;;;;26.19;52.63;96628.44;4990296;28;102867;-74
2023/10/11 11:46:50;;;;;;;6.60;2.70;;;;;;;26.63;56.33;96632.06;4990924;28;101800;-74
2023/10/11 11:49:20;;;;;;;8.47;2.80;;;;;;;26.82;48.82;96624.84;4990868;28;102837;-74
2023/10/11 11:51:50;;;;;;;8.10;2.60;;;;;;;26.00;50.96;96627.44;4988345;28;104946;-74
2023/10/11 11:54:19;;;;;;;9.93;2.87;;;;;;;26.40;50.77;96617.34;4992746;28;101767;-74
2023/10/11 11:56:46;;;;;;;7.47;2.90;;;;;;;26.51;48.97;96618.47;4988611;28;105445;-74
2023/10/11 11:59:17;;;;;;;10.63;2.83;;;;;;;26.41;50.42;96616.22;4989084;28;101935;-74
2023/10/11 12:01:49;;;;;;;9.23;3.10;;;;;;;26.84;50.21;96605.38;4989020;28;104963;-74
2023/10/11 12:04:20;;;;;;;7.40;3.00;;;;;;;27.35;47.10;96605.22;4988701;28;103892;-74
2023/10/11 12:06:48;;;;;;;7.73;2.40;;;;;;;27.72;47.36;96605.75;4988956;28;101937;-74